createdAt,value
2023-03-31T00:01:14.090Z,1.87
2023-03-31T00:03:48.381Z,2.70
2023-03-31T00:06:20.345Z,2.10
2023-03-31T00:08:53.948Z,2.33
2023-03-31T00:11:24.663Z,2.23
2023-03-31T00:13:55.333Z,1.53
2023-03-31T00:16:24.026Z,2.00
2023-03-31T00:18:53.419Z,3.87
2023-03-31T00:21:37.310Z,2.77
2023-03-31T00:24:08.292Z,2.67
2023-03-31T00:26:48.251Z,3.87
2023-03-31T00:29:17.657Z,4.93
2023-03-31T00:31:49.765Z,4.03
2023-03-31T00:34:20.759Z,1.90
2023-03-31T00:36:50.817Z,8.63
2023-03-31T00:39:25.456Z,1.30
2023-03-31T00:41:55.853Z,1.23
2023-03-31T00:44:27.077Z,1.20
2023-03-31T00:46:58.331Z,1.83
2023-03-31T00:49:38.458Z,2.60
2023-03-31T00:52:14.748Z,1.53
2023-03-31T00:54:49.170Z,2.03
2023-03-31T00:57:37.014Z,1.70
2023-03-31T01:00:14.603Z,1.60
2023-03-31T01:02:53.576Z,1.93
2023-03-31T01:05:25.049Z,2.20
2023-03-31T01:08:03.766Z,2.80
2023-03-31T01:10:41.953Z,3.17
2023-03-31T01:13:21.101Z,3.83
2023-03-31T01:15:49.395Z,2.43
2023-03-31T01:18:21.848Z,4.23
2023-03-31T01:21:14.910Z,2.47
2023-03-31T01:24:15.300Z,3.97
2023-03-31T01:27:07.030Z,2.43
2023-03-31T01:30:01.877Z,3.23
2023-03-31T01:33:02.617Z,4.40
2023-03-31T01:36:02.247Z,4.40
2023-03-31T01:39:11.054Z,3.73
2023-03-31T01:42:01.853Z,3.27
2023-03-31T01:44:39.417Z,4.00
2023-03-31T01:47:21.002Z,3.40
2023-03-31T01:50:02.197Z,3.10
2023-03-31T01:52:39.155Z,4.30
2023-03-31T01:55:10.948Z,9.27
2023-03-31T01:58:03.238Z,3.17
2023-03-31T02:00:40.473Z,4.13
2023-03-31T02:03:17.322Z,3.10
2023-03-31T02:05:50.647Z,5.50
2023-03-31T02:08:24.148Z,7.73
2023-03-31T02:10:54.017Z,6.10
2023-03-31T02:13:29.777Z,3.63
2023-03-31T02:16:08.519Z,3.10
2023-03-31T02:18:49.506Z,3.80
2023-03-31T02:21:22.840Z,3.03
2023-03-31T02:23:56.817Z,5.00
2023-03-31T02:26:28.012Z,6.67
2023-03-31T02:29:12.570Z,4.93
2023-03-31T02:31:48.174Z,2.60
2023-03-31T02:34:20.134Z,3.93
2023-03-31T02:36:51.547Z,5.80
2023-03-31T02:39:25.593Z,5.10
2023-03-31T02:41:56.843Z,3.30
2023-03-31T02:44:30.757Z,2.70
2023-03-31T02:47:02.544Z,4.13
2023-03-31T02:49:32.334Z,3.53
2023-03-31T02:52:26.361Z,2.40
2023-03-31T02:55:20.516Z,4.00
2023-03-31T02:58:06.765Z,2.83
2023-03-31T03:00:48.433Z,5.37
2023-03-31T03:03:32.824Z,3.87
2023-03-31T03:06:15.028Z,6.00
2023-03-31T03:09:08.630Z,5.13
2023-03-31T03:11:49.268Z,4.47
2023-03-31T03:14:27.959Z,5.10
2023-03-31T03:17:16.408Z,6.17
2023-03-31T03:19:47.882Z,5.97
2023-03-31T03:22:17.659Z,12.43
2023-03-31T03:24:52.673Z,6.40
2023-03-31T03:27:23.972Z,4.50
2023-03-31T03:29:57.370Z,3.33
2023-03-31T03:32:40.948Z,3.73
2023-03-31T03:35:13.240Z,6.33
2023-03-31T03:37:51.196Z,3.07
2023-03-31T03:40:20.234Z,6.17
2023-03-31T03:42:49.535Z,9.40
2023-03-31T03:45:19.022Z,5.67
2023-03-31T03:47:53.468Z,4.90
2023-03-31T03:50:25.063Z,4.73
2023-03-31T03:52:55.035Z,3.70
2023-03-31T03:55:27.064Z,7.40
2023-03-31T03:57:58.113Z,14.03
2023-03-31T04:00:27.702Z,5.07
2023-03-31T04:03:00.367Z,4.07
2023-03-31T04:05:31.242Z,4.10
2023-03-31T04:07:59.760Z,6.03
2023-03-31T04:10:29.220Z,6.90
2023-03-31T04:13:03.258Z,3.27
2023-03-31T04:15:35.095Z,4.70
2023-03-31T04:18:06.191Z,6.20
2023-03-31T04:20:37.809Z,5.10
2023-03-31T04:23:09.734Z,3.50
2023-03-31T04:25:46.872Z,3.10
2023-03-31T04:28:26.730Z,4.70
2023-03-31T04:30:59.673Z,3.90
2023-03-31T04:33:29.869Z,5.13
2023-03-31T04:36:07.241Z,2.40
2023-03-31T04:38:36.507Z,2.10
2023-03-31T04:41:10.675Z,2.17
2023-03-31T04:43:46.546Z,3.13
2023-03-31T04:46:15.806Z,2.40
2023-03-31T04:48:54.818Z,4.20
2023-03-31T04:51:26.162Z,3.43
2023-03-31T04:53:56.677Z,6.23
2023-03-31T04:56:28.517Z,3.00
2023-03-31T04:59:00.460Z,7.77
2023-03-31T05:01:35.473Z,6.47
2023-03-31T05:04:11.165Z,4.97
2023-03-31T05:06:39.735Z,5.83
2023-03-31T05:09:09.823Z,9.33
2023-03-31T05:11:39.343Z,9.83
2023-03-31T05:14:11.098Z,5.10
2023-03-31T05:16:42.084Z,6.50
2023-03-31T05:19:27.521Z,5.97
2023-03-31T05:21:56.677Z,12.00
2023-03-31T05:24:28.424Z,10.00
2023-03-31T05:26:58.242Z,9.47
2023-03-31T05:29:44.119Z,6.50
2023-03-31T05:32:13.338Z,10.13
2023-03-31T05:34:44.409Z,5.97
2023-03-31T05:37:12.908Z,7.13
2023-03-31T05:39:42.101Z,9.53
2023-03-31T05:42:10.617Z,8.03
2023-03-31T05:44:48.534Z,9.10
2023-03-31T05:47:27.813Z,13.03
2023-03-31T05:50:14.886Z,13.60
2023-03-31T05:52:47.086Z,7.90
2023-03-31T05:55:18.945Z,5.33
2023-03-31T05:57:57.647Z,13.27
2023-03-31T06:00:28.009Z,9.17
2023-03-31T06:03:00.333Z,7.77
2023-03-31T06:05:32.428Z,9.10
2023-03-31T06:08:00.572Z,12.57
2023-03-31T06:10:29.944Z,8.67
2023-03-31T06:12:59.029Z,9.57
2023-03-31T06:15:30.644Z,8.40
2023-03-31T06:18:01.935Z,6.83
2023-03-31T06:20:39.820Z,6.43
2023-03-31T06:23:11.291Z,8.83
2023-03-31T06:25:50.936Z,9.83
2023-03-31T06:28:20.786Z,11.10
2023-03-31T06:30:52.893Z,7.10
2023-03-31T06:33:24.255Z,15.63
2023-03-31T06:35:58.326Z,14.37
2023-03-31T06:38:27.971Z,8.90
2023-03-31T06:40:59.641Z,10.30
2023-03-31T06:43:29.558Z,10.10
2023-03-31T06:45:58.702Z,13.73
2023-03-31T06:48:29.625Z,9.70
2023-03-31T06:51:20.914Z,9.70
2023-03-31T06:53:49.637Z,13.37
2023-03-31T06:56:24.789Z,14.93
2023-03-31T06:58:57.009Z,11.70
2023-03-31T07:01:26.608Z,11.87
2023-03-31T07:03:55.774Z,6.43
2023-03-31T07:06:36.905Z,7.83
2023-03-31T07:09:07.844Z,12.40
2023-03-31T07:11:37.179Z,7.10
2023-03-31T07:14:06.998Z,9.47
2023-03-31T07:16:36.739Z,4.33
2023-03-31T07:19:08.136Z,2.77
2023-03-31T07:21:38.817Z,6.17
2023-03-31T07:24:07.162Z,4.13
2023-03-31T07:26:36.423Z,6.70
2023-03-31T07:29:07.944Z,6.10
2023-03-31T07:31:39.683Z,13.73
2023-03-31T07:34:09.424Z,8.73
2023-03-31T07:36:46.013Z,10.30
2023-03-31T07:39:14.945Z,8.60
2023-03-31T07:41:44.304Z,8.43
2023-03-31T07:44:28.544Z,6.90
2023-03-31T07:47:07.113Z,5.57
2023-03-31T07:49:38.848Z,5.97
2023-03-31T07:52:22.746Z,5.43
2023-03-31T07:54:59.062Z,6.90
2023-03-31T07:57:28.480Z,5.40
2023-03-31T07:59:57.702Z,3.40
2023-03-31T08:02:27.146Z,5.57
2023-03-31T08:04:58.983Z,5.43
2023-03-31T08:07:37.941Z,5.90
2023-03-31T08:10:11.973Z,7.13
2023-03-31T08:12:44.051Z,10.70
2023-03-31T08:15:14.033Z,5.13
2023-03-31T08:17:44.766Z,4.33
2023-03-31T08:20:16.806Z,5.03
2023-03-31T08:22:53.724Z,4.53
2023-03-31T08:25:28.782Z,3.30
2023-03-31T08:27:59.842Z,5.80
2023-03-31T08:30:29.072Z,3.00
2023-03-31T08:32:57.885Z,3.20
2023-03-31T08:35:29.747Z,7.00
2023-03-31T08:38:05.830Z,4.67
2023-03-31T08:40:42.429Z,4.93
2023-03-31T08:43:15.890Z,4.70
2023-03-31T08:45:48.349Z,5.80
2023-03-31T08:48:25.964Z,5.77
2023-03-31T08:51:21.236Z,7.10
2023-03-31T08:53:56.688Z,4.50
2023-03-31T08:56:33.239Z,3.13
2023-03-31T08:59:04.138Z,5.33
2023-03-31T09:01:55.742Z,4.73
2023-03-31T09:04:53.476Z,8.93
2023-03-31T09:07:33.259Z,5.30
2023-03-31T09:10:24.012Z,5.17
2023-03-31T09:12:57.782Z,6.37
2023-03-31T09:15:29.851Z,4.33
2023-03-31T09:18:04.569Z,11.17
2023-03-31T09:20:38.422Z,5.57
2023-03-31T09:23:23.368Z,5.50
2023-03-31T09:26:03.061Z,4.57
2023-03-31T09:28:38.959Z,8.50
2023-03-31T09:31:20.170Z,10.00
2023-03-31T09:33:51.556Z,7.80
2023-03-31T09:36:22.925Z,7.97
2023-03-31T09:38:53.416Z,6.40
2023-03-31T09:41:37.885Z,7.23
2023-03-31T09:44:09.477Z,4.83
2023-03-31T09:46:40.361Z,7.27
2023-03-31T09:49:15.310Z,7.50
2023-03-31T09:51:46.771Z,9.53
2023-03-31T09:54:21.337Z,5.00
2023-03-31T09:56:54.528Z,7.97
2023-03-31T09:59:25.628Z,4.63
2023-03-31T10:02:03.093Z,4.57
2023-03-31T10:04:33.876Z,8.50
2023-03-31T10:07:16.638Z,10.13
2023-03-31T10:09:48.421Z,6.47
2023-03-31T10:12:27.619Z,8.63
2023-03-31T10:15:14.472Z,5.37
2023-03-31T10:17:55.406Z,6.57
2023-03-31T10:20:36.592Z,11.27
2023-03-31T10:23:15.747Z,4.17
2023-03-31T10:25:53.659Z,6.37
2023-03-31T10:28:28.304Z,4.40
2023-03-31T10:31:04.111Z,7.30
2023-03-31T10:33:35.831Z,3.20
2023-03-31T10:36:27.517Z,4.93
2023-03-31T10:38:58.655Z,4.57
2023-03-31T10:41:28.816Z,7.63
2023-03-31T10:44:05.775Z,4.10
2023-03-31T10:46:55.888Z,10.60
2023-03-31T10:49:27.827Z,4.07
2023-03-31T10:51:59.637Z,3.83
2023-03-31T10:54:29.402Z,5.30
2023-03-31T10:57:06.505Z,4.10
2023-03-31T11:00:00.686Z,4.27
2023-03-31T11:02:50.302Z,3.27
2023-03-31T11:05:29.503Z,4.13
2023-03-31T11:08:12.126Z,4.53
2023-03-31T11:11:04.024Z,5.03
2023-03-31T11:13:38.227Z,11.60
2023-03-31T11:16:28.399Z,5.43
2023-03-31T11:19:27.402Z,4.33
2023-03-31T11:22:05.381Z,2.90
2023-03-31T11:24:47.319Z,3.80
2023-03-31T11:27:36.913Z,4.43
2023-03-31T11:30:12.299Z,7.97
2023-03-31T11:33:05.662Z,3.50
2023-03-31T11:35:48.440Z,3.53
2023-03-31T11:38:38.293Z,4.23
2023-03-31T11:41:24.917Z,3.40
2023-03-31T11:43:58.842Z,4.10
2023-03-31T11:46:33.710Z,4.83
2023-03-31T11:49:21.103Z,3.53
2023-03-31T11:51:54.241Z,6.00
2023-03-31T11:54:28.922Z,3.43
2023-03-31T11:56:57.917Z,5.90
2023-03-31T11:59:30.134Z,5.37
2023-03-31T12:02:06.001Z,8.73
2023-03-31T12:04:44.049Z,5.20
2023-03-31T12:07:26.496Z,6.63
2023-03-31T12:10:05.854Z,6.30
2023-03-31T12:12:39.259Z,4.10
2023-03-31T12:15:18.960Z,3.33
2023-03-31T12:17:56.564Z,6.53
2023-03-31T12:20:34.882Z,8.30
2023-03-31T12:23:12.612Z,9.43
2023-03-31T12:25:51.904Z,3.43
2023-03-31T12:28:23.378Z,4.73
2023-03-31T12:30:54.882Z,2.97
2023-03-31T12:33:27.168Z,6.07
2023-03-31T12:36:20.855Z,5.00
2023-03-31T12:39:01.804Z,3.10
2023-03-31T12:41:39.023Z,3.90
2023-03-31T12:44:25.425Z,3.53
2023-03-31T12:47:36.028Z,3.23
2023-03-31T12:50:47.244Z,6.67
2023-03-31T12:53:35.456Z,3.43
2023-03-31T12:56:07.468Z,6.00
2023-03-31T12:59:01.847Z,6.37
2023-03-31T13:01:29.980Z,3.27
2023-03-31T13:04:20.720Z,3.83
2023-03-31T13:06:59.699Z,3.70
2023-03-31T13:10:05.078Z,3.20
2023-03-31T13:12:36.075Z,4.67
2023-03-31T13:15:06.423Z,3.17
2023-03-31T13:17:39.730Z,3.57
2023-03-31T13:20:36.146Z,5.97
2023-03-31T13:23:08.845Z,3.80
2023-03-31T13:25:46.365Z,3.33
2023-03-31T13:28:46.762Z,3.97
2023-03-31T13:31:17.656Z,2.87
2023-03-31T13:34:00.772Z,4.50
2023-03-31T13:36:57.534Z,2.90
2023-03-31T13:39:38.051Z,6.50
2023-03-31T13:42:31.622Z,3.13
2023-03-31T13:45:26.709Z,4.53
2023-03-31T13:48:01.602Z,2.03
2023-03-31T13:50:57.545Z,2.70
2023-03-31T13:53:41.014Z,3.67
2023-03-31T13:56:25.569Z,2.50
2023-03-31T13:59:14.666Z,2.00
2023-03-31T14:02:19.064Z,2.90
2023-03-31T14:05:21.985Z,2.37
2023-03-31T14:07:55.829Z,5.37
2023-03-31T14:10:30.047Z,5.50
2023-03-31T14:13:18.402Z,2.53
2023-03-31T14:15:57.904Z,2.40
2023-03-31T14:18:29.910Z,4.83
2023-03-31T14:21:11.531Z,2.60
2023-03-31T14:23:55.403Z,5.03
2023-03-31T14:26:46.963Z,2.20
2023-03-31T14:29:23.413Z,2.30
2023-03-31T14:31:58.575Z,5.83
2023-03-31T14:34:59.679Z,2.53
2023-03-31T14:37:30.968Z,2.20
2023-03-31T14:40:00.006Z,2.07
2023-03-31T14:42:40.455Z,3.20
2023-03-31T14:45:19.489Z,6.33
2023-03-31T14:48:08.512Z,3.73
2023-03-31T14:50:37.782Z,2.37
2023-03-31T14:53:06.533Z,3.00
2023-03-31T14:58:08.449Z,3.30
2023-03-31T15:00:40.877Z,4.20
2023-03-31T15:03:19.669Z,4.53
2023-03-31T15:05:59.691Z,5.00
2023-03-31T15:08:37.241Z,8.30
2023-03-31T15:13:47.011Z,4.83
2023-03-31T15:16:42.716Z,2.20
2023-03-31T15:19:36.700Z,2.50
2023-03-31T15:22:17.660Z,3.13
2023-03-31T15:24:47.143Z,1.67
2023-03-31T15:27:23.474Z,2.33
2023-03-31T15:30:08.529Z,2.03
2023-03-31T15:32:42.599Z,5.40
2023-03-31T15:35:23.570Z,2.33
2023-03-31T15:37:53.845Z,1.40
2023-03-31T15:40:27.164Z,2.40
2023-03-31T15:43:13.330Z,2.60
2023-03-31T15:45:52.990Z,1.83
2023-03-31T15:48:25.338Z,3.27
2023-03-31T15:51:04.195Z,1.80
2023-03-31T15:53:41.276Z,1.20
2023-03-31T15:56:12.017Z,1.90
2023-03-31T15:59:07.825Z,2.00
2023-03-31T16:01:50.714Z,2.40
2023-03-31T16:04:20.408Z,2.97
2023-03-31T16:06:55.204Z,1.50
2023-03-31T16:09:27.849Z,2.37
2023-03-31T16:11:58.615Z,4.00
2023-03-31T16:14:31.658Z,1.60
2023-03-31T16:17:04.002Z,2.03
2023-03-31T16:19:41.556Z,1.60
2023-03-31T16:22:21.885Z,3.63
2023-03-31T16:24:54.357Z,2.97
2023-03-31T16:27:26.870Z,1.67
2023-03-31T16:30:08.660Z,2.77
2023-03-31T16:32:40.551Z,2.83
2023-03-31T16:35:16.543Z,2.20
2023-03-31T16:37:47.335Z,4.20
2023-03-31T16:40:28.730Z,1.80
2023-03-31T16:43:20.192Z,5.43
2023-03-31T16:46:00.579Z,2.60
2023-03-31T16:48:38.674Z,2.57
2023-03-31T16:51:16.121Z,3.60
2023-03-31T16:53:52.734Z,4.23
2023-03-31T16:56:23.950Z,4.03
2023-03-31T16:58:54.162Z,3.17
2023-03-31T17:01:23.885Z,2.80
2023-03-31T17:03:53.198Z,3.13
2023-03-31T17:06:24.387Z,2.60
2023-03-31T17:08:58.732Z,4.03
2023-03-31T17:11:33.719Z,6.23
2023-03-31T17:14:10.547Z,2.60
2023-03-31T17:19:34.216Z,2.53
2023-03-31T17:22:13.024Z,1.83
2023-03-31T17:24:50.663Z,2.57
2023-03-31T17:27:32.331Z,3.17
2023-03-31T17:32:33.918Z,8.53
2023-03-31T17:35:05.368Z,5.40
2023-03-31T17:37:48.570Z,3.90
2023-03-31T17:40:19.745Z,6.53
2023-03-31T17:42:55.305Z,3.30
2023-03-31T17:45:25.482Z,2.70
2023-03-31T17:47:58.463Z,3.23
2023-03-31T17:50:35.015Z,2.63
2023-03-31T17:53:10.391Z,2.33
2023-03-31T17:55:46.435Z,2.37
2023-03-31T17:58:23.411Z,2.80
2023-03-31T18:01:10.340Z,1.80
2023-03-31T18:03:48.851Z,2.47
2023-03-31T18:06:20.315Z,1.70
2023-03-31T18:08:54.664Z,1.70
2023-03-31T18:11:35.486Z,1.87
2023-03-31T18:14:11.185Z,2.10
2023-03-31T18:16:40.667Z,1.80
2023-03-31T18:19:25.597Z,3.37
2023-03-31T18:21:57.376Z,3.40
2023-03-31T18:24:35.047Z,3.30
2023-03-31T18:27:24.599Z,4.30
2023-03-31T18:29:59.714Z,5.40
2023-03-31T18:32:34.204Z,4.00
2023-03-31T18:35:10.022Z,3.80
2023-03-31T18:37:42.666Z,2.47
2023-03-31T18:40:19.450Z,9.60
2023-03-31T18:42:54.267Z,2.70
2023-03-31T18:45:34.275Z,2.30
2023-03-31T18:48:04.841Z,3.50
2023-03-31T18:50:37.876Z,1.97
2023-03-31T18:53:09.106Z,4.40
2023-03-31T18:55:45.650Z,2.33
2023-03-31T18:58:24.482Z,3.43
2023-03-31T19:01:01.357Z,3.13
2023-03-31T19:03:34.397Z,3.87
2023-03-31T19:06:20.487Z,2.63
2023-03-31T19:08:52.509Z,2.03
2023-03-31T19:11:26.264Z,2.40
2023-03-31T19:14:03.779Z,2.20
2023-03-31T19:16:46.371Z,2.83
2023-03-31T19:19:24.399Z,2.57
2023-03-31T19:21:55.010Z,6.17
2023-03-31T19:24:33.921Z,5.83
2023-03-31T19:27:04.765Z,4.27
2023-03-31T19:29:38.842Z,5.07
2023-03-31T19:32:19.054Z,3.73
2023-03-31T19:34:50.035Z,5.70
2023-03-31T19:37:27.816Z,7.30
2023-03-31T19:40:00.265Z,5.63
2023-03-31T19:42:34.105Z,4.00
2023-03-31T19:45:05.765Z,7.20
2023-03-31T19:47:36.923Z,2.67
2023-03-31T19:50:15.865Z,6.10
2023-03-31T19:52:50.919Z,3.37
2023-03-31T19:55:29.590Z,2.70
2023-03-31T19:58:06.856Z,2.00
2023-03-31T20:00:47.667Z,3.33
2023-03-31T20:03:19.368Z,6.43
2023-03-31T20:05:50.153Z,2.93
2023-03-31T20:08:28.581Z,2.93
2023-03-31T20:11:11.536Z,3.60
2023-03-31T20:13:45.888Z,5.47
2023-03-31T20:16:18.626Z,2.50
2023-03-31T20:18:54.538Z,4.70
2023-03-31T20:21:28.124Z,2.00
2023-03-31T20:23:59.238Z,8.30
2023-03-31T20:26:32.806Z,3.37
2023-03-31T20:29:11.894Z,2.70
2023-03-31T20:31:53.414Z,1.77
2023-03-31T20:34:33.102Z,2.33
2023-03-31T20:37:04.548Z,2.17
2023-03-31T20:39:35.382Z,1.50
2023-03-31T20:42:14.477Z,3.30
2023-03-31T20:44:46.671Z,4.83
2023-03-31T20:47:17.970Z,1.87
2023-03-31T20:49:52.352Z,2.00
2023-03-31T20:52:21.242Z,1.93
2023-03-31T20:54:52.728Z,4.00
2023-03-31T20:57:30.394Z,2.73
2023-03-31T21:00:02.736Z,3.13
2023-03-31T21:02:44.193Z,2.83
2023-03-31T21:05:17.991Z,3.57
2023-03-31T21:07:49.453Z,3.13
2023-03-31T21:10:21.042Z,3.60
2023-03-31T21:12:50.615Z,4.10
2023-03-31T21:15:18.807Z,2.87
2023-03-31T21:17:54.441Z,1.53
2023-03-31T21:20:25.167Z,3.53
2023-03-31T21:22:57.324Z,2.17
2023-03-31T21:25:26.102Z,2.07
2023-03-31T21:28:09.182Z,1.80
2023-03-31T21:30:42.071Z,2.77
2023-03-31T21:33:27.409Z,4.77
2023-03-31T21:36:09.662Z,3.97
2023-03-31T21:38:38.942Z,2.30
2023-03-31T21:41:10.994Z,2.67
2023-03-31T21:43:53.131Z,3.27
2023-03-31T21:46:24.254Z,3.70
2023-03-31T21:49:16.172Z,2.00
2023-03-31T21:51:49.198Z,1.27
2023-03-31T21:54:18.711Z,1.63
2023-03-31T21:56:46.822Z,1.83
2023-03-31T21:59:18.026Z,2.07
2023-03-31T22:01:52.215Z,1.67
2023-03-31T22:04:30.767Z,4.30
2023-03-31T22:07:00.716Z,2.10
2023-03-31T22:09:30.479Z,1.90
2023-03-31T22:12:05.091Z,1.63
2023-03-31T22:14:34.790Z,1.43
2023-03-31T22:17:05.996Z,3.80
2023-03-31T22:19:37.441Z,2.40
2023-03-31T22:22:08.295Z,5.10
2023-03-31T22:24:37.723Z,2.40
2023-03-31T22:27:15.798Z,1.73
2023-03-31T22:29:47.538Z,1.23
2023-03-31T22:32:24.896Z,1.20
2023-03-31T22:34:55.436Z,1.03
2023-03-31T22:37:25.675Z,1.90
2023-03-31T22:39:56.496Z,1.73
2023-03-31T22:42:28.478Z,0.87
2023-03-31T22:44:57.939Z,0.90
2023-03-31T22:47:29.740Z,0.90
2023-03-31T22:50:09.405Z,0.60
2023-03-31T22:52:44.034Z,1.50
2023-03-31T22:55:15.988Z,0.97
2023-03-31T22:57:46.038Z,2.17
2023-03-31T23:00:17.146Z,0.80
2023-03-31T23:02:48.082Z,1.20
2023-03-31T23:05:24.424Z,5.30
2023-03-31T23:07:56.318Z,0.80
2023-03-31T23:10:25.685Z,1.43
2023-03-31T23:12:56.162Z,1.20
2023-03-31T23:15:28.418Z,3.83
2023-03-31T23:18:00.685Z,1.90
2023-03-31T23:20:31.333Z,0.67
2023-03-31T23:23:03.103Z,2.20
2023-03-31T23:25:33.443Z,0.83
2023-03-31T23:28:04.485Z,1.70
2023-03-31T23:30:37.374Z,1.13
2023-03-31T23:33:07.079Z,1.37
2023-03-31T23:35:37.946Z,0.57
2023-03-31T23:38:07.858Z,1.70
2023-03-31T23:40:46.329Z,1.80
2023-03-31T23:43:16.441Z,4.83
2023-03-31T23:45:45.235Z,0.90
2023-03-31T23:48:17.440Z,1.87
2023-03-31T23:50:54.844Z,0.93
2023-03-31T23:53:24.211Z,2.60
2023-03-31T23:55:56.784Z,3.00
2023-03-31T23:58:30.485Z,1.77
